キングストン の空港の天気 - METARとTAF

ノーマン・マンレー国際空港 ( MKJP / KIN ) - ジャマイカ キングストン
飛行場実況気象(Metar)
観測時間07/15 07:00 EST (07/15 12:00 UTC)
風向・風速北西 3m/s
視程10km以上
天気現象
少しの雲 雲底高度 730m
気温29℃
湿度70%
気圧1014hPa
METARMKJP 151200Z 32005KT 9999 FEW024 29/23 Q1014
過去の天気等 Google飛行場航空写真 Wunderground天気予報

過去48時間のMETAR

飛行場予報(TAF)
発表時間: 7/15 06:15 EST (7/15 11:15 UTC)
予報対象時間: 15日7時 EST ~ 16日7時 EST
風向・風速北 4m/s
視程10km以上
少しの雲 雲底高度 730m
15日10時 EST ~ 15日12時 EST に徐々に
風向・風速南南東 13m/s
全天の4割程度の雲 雲底高度 610m
15日22時 EST ~ 15日24時 EST に徐々に
風向・風速北 4m/s
TAF MKJP 151115Z 1512/1612 35007KT 9999 FEW024
BECMG 1515/1517 15025KT SCT020
BECMG 1603/1605 35007KT